首页
METAR-TAF:

METAR-TAF

机场 :

Fairford, 英格兰

纬度: 51-41N, 经度: 001-47W, 海拔: 87米

当前天气观测

该预报发布于43分钟前的02:01 UTC
风速3节,风向
温度 4°C
湿度 93%
气压 1008 hPa
能见度10公里或以上
散云层高于1500英尺
阴天层高于5000英尺

METAR: EGVA 170201Z AUTO 10003KT 9999 SCT015 OVC050 04/03 A2978 RMK AO2 SLP090 $

时间: 02:44 (02:44 UTC)


TAF: 丢失

超过4000个机场的气象观测和天气预报(METAR&TAF报告)。

可查询的气象台以黄色和红色小点在地图上表示。

将鼠标移到小点上方,可查看气象台名称。

然后点击查看天气观测和预报。

如需切换地图:点击带黑十字的绿色按钮放大地图;点击带横线的绿色按钮缩小地图;或者点击绿色箭头查看邻近地区的地图。


METAR-TAF: